KGEG

Spokane International Airport

Spokane, Washington, USA
METAR KGEG 221453Z 05007KT 10SM CLR 17/12 A2996 RMK AO2 SLP133 T01670117 52006
Observed Flight Rules
May-22 @ 14:53 UTC (41 minutes ago) Visual Flight Rules
Wind Visibility Clouds
50° at 7 knots 10 miles
  • Clear skies
Temperatures Readings
Current 17°C / 63°F
Dewpoint 12°C / 54°F
Humidity 73%
Altimeter 29.96" Hg
Pressure 1013.3 hPa
Elevation 735
METAR KGEG 221453Z 05007KT 10SM CLR 17/12 A2996 RMK AO2 SLP133 T01670117 52006
Observed Flight Rules
May-22 @ 14:53 UTC
(41 minutes ago)
VFR
Wind Visibility
50° at 7 knots 10 miles
Clouds
  • Clear skies
Temperature Dewpoint
17°C / 63°F 12°C / 54°F
Humidity Altimeter Pressure
73% 29.96" Hg 1013.3 hPa